createdAt,value
2023-02-11T00:01:36.106Z,19.23
2023-02-11T00:04:06.455Z,21.87
2023-02-11T00:06:36.033Z,23.10
2023-02-11T00:09:05.191Z,21.60
2023-02-11T00:11:33.721Z,21.77
2023-02-11T00:14:04.253Z,19.17
2023-02-11T00:16:33.866Z,20.80
2023-02-11T00:19:03.742Z,21.67
2023-02-11T00:21:31.914Z,20.73
2023-02-11T00:24:02.448Z,22.20
2023-02-11T00:26:34.122Z,18.90
2023-02-11T00:29:02.680Z,22.70
2023-02-11T00:31:31.088Z,19.57
2023-02-11T00:34:00.689Z,21.43
2023-02-11T00:36:30.342Z,19.23
2023-02-11T00:38:59.690Z,21.13
2023-02-11T00:41:27.958Z,23.17
2023-02-11T00:43:56.162Z,22.33
2023-02-11T00:46:24.668Z,23.70
2023-02-11T00:48:55.032Z,22.80
2023-02-11T00:51:24.969Z,19.07
2023-02-11T00:53:53.752Z,23.60
2023-02-11T00:56:22.162Z,20.90
2023-02-11T00:58:50.351Z,17.03
2023-02-11T01:01:18.741Z,19.70
2023-02-11T01:03:47.183Z,20.23
2023-02-11T01:06:15.484Z,18.10
2023-02-11T01:08:45.037Z,19.23
2023-02-11T01:11:14.992Z,17.97
2023-02-11T01:13:44.097Z,18.70
2023-02-11T01:16:12.804Z,23.03
2023-02-11T01:18:44.226Z,20.40
2023-02-11T01:21:13.138Z,21.63
2023-02-11T01:23:41.370Z,22.40
2023-02-11T01:26:10.938Z,19.50
2023-02-11T01:28:39.096Z,25.10
2023-02-11T01:31:07.333Z,19.87
2023-02-11T01:33:35.629Z,18.60
2023-02-11T01:36:04.917Z,19.87
2023-02-11T01:38:33.655Z,19.03
2023-02-11T01:41:04.562Z,21.07
2023-02-11T01:43:37.095Z,17.97
2023-02-11T01:46:24.452Z,25.73
2023-02-11T01:48:55.808Z,18.80
2023-02-11T01:51:28.659Z,19.10
2023-02-11T01:54:15.552Z,22.83
2023-02-11T01:57:04.896Z,23.17
2023-02-11T01:59:39.606Z,19.37
2023-02-11T02:02:11.764Z,21.10
2023-02-11T02:04:43.245Z,24.43
2023-02-11T02:07:15.353Z,16.80
2023-02-11T02:09:46.642Z,20.67
2023-02-11T02:12:14.904Z,22.20
2023-02-11T02:14:44.589Z,20.03
2023-02-11T02:17:23.547Z,21.50
2023-02-11T02:20:14.619Z,25.53
2023-02-11T02:23:11.239Z,23.27
2023-02-11T02:26:04.730Z,26.57
2023-02-11T02:28:57.260Z,22.10
2023-02-11T02:31:40.834Z,27.20
2023-02-11T02:34:18.358Z,24.73
2023-02-11T02:36:52.924Z,23.80
2023-02-11T02:39:27.186Z,22.80
2023-02-11T02:41:57.171Z,24.33
2023-02-11T02:44:25.744Z,26.40
2023-02-11T02:46:54.019Z,24.87
2023-02-11T02:49:23.630Z,24.87
2023-02-11T02:52:12.752Z,24.33
2023-02-11T02:55:16.550Z,26.57
2023-02-11T02:58:04.423Z,26.40
2023-02-11T03:00:44.179Z,28.17
2023-02-11T03:03:23.562Z,28.70
2023-02-11T03:05:59.313Z,27.20
2023-02-11T03:08:33.454Z,29.40
2023-02-11T03:11:04.377Z,28.67
2023-02-11T03:13:35.571Z,26.77
2023-02-11T03:16:09.300Z,28.83
2023-02-11T03:18:39.280Z,27.83
2023-02-11T03:21:11.047Z,26.03
2023-02-11T03:23:43.164Z,32.20
2023-02-11T03:26:18.068Z,28.83
2023-02-11T03:28:52.383Z,32.90
2023-02-11T03:31:28.120Z,31.03
2023-02-11T03:34:02.260Z,30.30
2023-02-11T03:36:36.899Z,27.30
2023-02-11T03:39:07.188Z,29.20
2023-02-11T03:41:36.607Z,28.97
2023-02-11T03:44:06.863Z,27.97
2023-02-11T03:46:38.363Z,28.97
2023-02-11T03:49:10.643Z,25.27
2023-02-11T03:51:41.247Z,28.10
2023-02-11T03:54:14.768Z,27.00
2023-02-11T03:56:50.224Z,26.63
2023-02-11T03:59:18.479Z,30.80
2023-02-11T04:01:46.769Z,25.97
2023-02-11T04:04:15.409Z,26.03
2023-02-11T04:06:45.132Z,29.33
2023-02-11T04:09:13.750Z,28.53
2023-02-11T04:11:41.937Z,27.73
2023-02-11T04:14:10.141Z,27.10
2023-02-11T04:16:38.377Z,26.73
2023-02-11T04:19:06.544Z,29.63
2023-02-11T04:21:34.714Z,31.43
2023-02-11T04:24:04.496Z,29.83
2023-02-11T04:26:32.712Z,28.83
2023-02-11T04:29:00.922Z,30.53
2023-02-11T04:31:29.514Z,27.00
2023-02-11T04:33:58.490Z,28.63
2023-02-11T04:36:26.660Z,24.03
2023-02-11T04:38:54.844Z,28.03
2023-02-11T04:41:24.510Z,31.27
2023-02-11T04:43:52.709Z,27.03
2023-02-11T04:46:20.938Z,29.97
2023-02-11T04:48:49.091Z,25.60
2023-02-11T04:51:17.300Z,29.03
2023-02-11T04:53:45.503Z,25.90
2023-02-11T04:56:13.723Z,35.83
2023-02-11T04:58:43.334Z,22.93
2023-02-11T05:01:13.610Z,24.70
2023-02-11T05:03:42.825Z,29.40
2023-02-11T05:06:11.969Z,27.70
2023-02-11T05:08:40.476Z,31.37
2023-02-11T05:11:15.329Z,28.07
2023-02-11T05:13:45.136Z,28.93
2023-02-11T05:16:13.564Z,33.43
2023-02-11T05:18:42.605Z,31.80
2023-02-11T05:21:12.582Z,26.97
2023-02-11T05:23:41.239Z,26.60
2023-02-11T05:26:10.077Z,27.37
2023-02-11T05:28:38.278Z,27.00
2023-02-11T05:31:08.105Z,25.30
2023-02-11T05:33:36.482Z,24.73
2023-02-11T05:36:07.548Z,27.53
2023-02-11T05:38:36.104Z,30.53
2023-02-11T05:41:05.347Z,25.77
2023-02-11T05:43:35.163Z,27.53
2023-02-11T05:46:03.842Z,29.40
2023-02-11T05:48:33.693Z,30.73
2023-02-11T05:51:02.018Z,26.70
2023-02-11T05:53:30.187Z,24.47
2023-02-11T05:55:58.507Z,30.17
2023-02-11T05:58:26.703Z,28.93
2023-02-11T06:00:54.887Z,32.00
2023-02-11T06:03:23.057Z,32.57
2023-02-11T06:05:52.814Z,32.00
2023-02-11T06:08:21.175Z,32.63
2023-02-11T06:10:49.367Z,28.60
2023-02-11T06:13:18.560Z,36.40
2023-02-11T06:15:47.199Z,30.73
2023-02-11T06:18:15.372Z,30.07
2023-02-11T06:20:43.547Z,30.77
2023-02-11T06:23:13.263Z,26.67
2023-02-11T06:25:41.482Z,32.00
2023-02-11T06:28:10.593Z,31.70
2023-02-11T06:30:39.263Z,31.57
2023-02-11T06:33:07.514Z,34.30
2023-02-11T06:35:36.597Z,32.67
2023-02-11T06:38:04.722Z,31.57
2023-02-11T06:40:34.485Z,31.80
2023-02-11T06:43:02.669Z,34.10
2023-02-11T06:45:30.810Z,34.80
2023-02-11T06:47:58.948Z,34.87
2023-02-11T06:50:27.075Z,32.33
2023-02-11T06:52:55.246Z,35.20
2023-02-11T06:55:23.500Z,38.00
2023-02-11T06:57:53.072Z,33.63
2023-02-11T07:00:21.333Z,32.37
2023-02-11T07:02:49.605Z,31.80
2023-02-11T07:05:17.854Z,31.80
2023-02-11T07:07:46.033Z,27.53
2023-02-11T07:10:14.312Z,29.97
2023-02-11T07:12:42.494Z,36.47
2023-02-11T07:15:12.222Z,34.67
2023-02-11T07:17:40.360Z,31.83
2023-02-11T07:20:09.536Z,41.40
2023-02-11T07:22:37.638Z,33.60
2023-02-11T07:25:06.700Z,30.67
2023-02-11T07:27:34.845Z,33.20
2023-02-11T07:30:04.924Z,31.47
2023-02-11T07:32:36.509Z,34.97
2023-02-11T07:35:05.228Z,38.57
2023-02-11T07:37:35.359Z,32.07
2023-02-11T07:40:04.125Z,34.43
2023-02-11T07:42:32.398Z,38.00
2023-02-11T07:45:00.663Z,32.93
2023-02-11T07:47:29.286Z,37.33
2023-02-11T07:49:58.964Z,34.13
2023-02-11T07:52:30.043Z,39.97
2023-02-11T07:54:58.407Z,39.40
2023-02-11T07:57:26.906Z,36.50
2023-02-11T07:59:55.143Z,38.10
2023-02-11T08:02:23.460Z,36.03
2023-02-11T08:04:51.745Z,37.37
2023-02-11T08:07:21.270Z,38.93
2023-02-11T08:09:49.484Z,36.33
2023-02-11T08:12:17.731Z,39.27
2023-02-11T08:14:45.857Z,36.17
2023-02-11T08:17:14.175Z,32.63
2023-02-11T08:19:42.404Z,35.10
2023-02-11T08:22:10.610Z,35.40
2023-02-11T08:24:40.200Z,34.23
2023-02-11T08:27:08.457Z,31.60
2023-02-11T08:29:36.683Z,35.97
2023-02-11T08:32:05.067Z,33.40
2023-02-11T08:34:34.109Z,34.07
2023-02-11T14:41:10.959Z,41.87
2023-02-11T14:43:42.991Z,46.30
2023-02-11T14:46:11.730Z,47.73
2023-02-11T14:48:44.554Z,42.63
2023-02-11T14:51:16.796Z,43.70
2023-02-11T14:53:50.009Z,42.77
2023-02-11T14:56:21.730Z,44.60
2023-02-11T14:58:52.134Z,41.80
2023-02-11T15:01:32.014Z,41.50
2023-02-11T15:04:04.124Z,42.23
2023-02-11T15:06:33.931Z,43.80
2023-02-11T15:09:05.655Z,44.23
2023-02-11T15:11:39.768Z,40.73
2023-02-11T15:14:11.679Z,44.17
2023-02-11T15:16:43.504Z,44.70
2023-02-11T15:19:21.365Z,42.13
2023-02-11T15:21:50.859Z,41.17
2023-02-11T15:24:25.477Z,37.40
2023-02-11T15:27:00.248Z,40.73
2023-02-11T15:29:35.355Z,44.07
2023-02-11T15:32:16.868Z,42.17
2023-02-11T15:34:46.242Z,44.43
2023-02-11T15:37:18.180Z,41.00
2023-02-11T15:39:46.454Z,42.53
2023-02-11T15:42:24.522Z,38.30
2023-02-11T15:45:12.767Z,38.50
2023-02-11T15:47:43.259Z,41.80
2023-02-11T15:50:22.095Z,33.00
2023-02-11T15:52:50.803Z,40.27
2023-02-11T15:55:20.118Z,37.20
2023-02-11T15:57:55.159Z,39.87
2023-02-11T16:00:26.089Z,38.10
2023-02-11T16:02:54.843Z,43.40
2023-02-11T16:05:30.212Z,34.10
2023-02-11T16:07:59.712Z,36.87
2023-02-11T16:10:30.624Z,39.27
2023-02-11T16:13:20.254Z,41.70
2023-02-11T16:15:52.430Z,40.30
2023-02-11T16:18:39.023Z,37.17
2023-02-11T16:21:14.463Z,36.10
2023-02-11T16:23:43.236Z,36.90
2023-02-11T16:26:22.943Z,37.63
2023-02-11T16:28:53.001Z,39.17
2023-02-11T16:31:21.467Z,36.10
2023-02-11T16:33:50.180Z,37.07
2023-02-11T16:36:18.556Z,41.80
2023-02-11T16:38:46.783Z,35.20
2023-02-11T16:41:15.152Z,36.27
2023-02-11T16:43:43.371Z,33.13
2023-02-11T16:46:16.784Z,39.03
2023-02-11T16:48:46.689Z,33.00
2023-02-11T16:51:15.407Z,37.47
2023-02-11T16:53:43.584Z,40.30
2023-02-11T16:56:16.609Z,35.37
2023-02-11T16:58:45.360Z,41.13
2023-02-11T17:01:15.055Z,38.93
2023-02-11T17:03:43.698Z,36.40
2023-02-11T17:06:14.023Z,37.40
2023-02-11T17:08:42.481Z,42.27
2023-02-11T17:11:10.743Z,37.00
2023-02-11T17:13:39.457Z,37.43
2023-02-11T17:16:14.747Z,44.30
2023-02-11T17:18:42.936Z,43.30
2023-02-11T17:21:11.201Z,44.60
2023-02-11T17:23:39.841Z,35.40
2023-02-11T17:26:08.098Z,39.73
2023-02-11T17:28:36.684Z,37.93
2023-02-11T17:31:08.802Z,40.10
2023-02-11T17:33:38.840Z,35.27
2023-02-11T17:36:09.055Z,38.83
2023-02-11T17:38:38.610Z,35.80
2023-02-11T17:41:07.215Z,38.13
2023-02-11T17:43:35.553Z,44.17
2023-02-11T17:46:07.557Z,37.00
2023-02-11T17:48:35.850Z,40.30
2023-02-11T17:51:05.968Z,36.70
2023-02-11T17:53:34.226Z,42.33
2023-02-11T17:56:06.359Z,42.13
2023-02-11T17:58:34.564Z,39.60
2023-02-11T18:01:02.948Z,38.67
2023-02-11T18:03:31.254Z,43.33
2023-02-11T18:06:01.056Z,37.80
2023-02-11T18:08:31.061Z,40.77
2023-02-11T18:10:59.389Z,36.90
2023-02-11T18:13:28.519Z,34.60
2023-02-11T18:15:56.744Z,36.70
2023-02-11T18:18:24.971Z,36.23
2023-02-11T18:20:57.986Z,39.70
2023-02-11T18:23:26.669Z,42.97
2023-02-11T18:25:56.376Z,40.37
2023-02-11T18:28:24.611Z,38.67
2023-02-11T18:30:58.251Z,39.80
2023-02-11T18:33:27.140Z,37.43
2023-02-11T18:35:55.711Z,38.83
2023-02-11T18:38:24.032Z,37.40
2023-02-11T18:40:53.147Z,40.60
2023-02-11T18:43:22.776Z,43.07
2023-02-11T18:45:51.793Z,43.30
2023-02-11T18:48:20.179Z,40.00
2023-02-11T18:50:48.353Z,43.20
2023-02-11T18:53:16.672Z,43.03
2023-02-11T18:55:46.331Z,38.27
2023-02-11T18:58:15.290Z,42.53
2023-02-11T19:00:50.147Z,41.70
2023-02-11T19:03:18.457Z,43.90
2023-02-11T19:05:48.791Z,44.23
2023-02-11T19:08:17.966Z,41.87
2023-02-11T19:10:49.302Z,52.17
2023-02-11T19:13:17.458Z,44.33
2023-02-11T19:15:47.873Z,47.27
2023-02-11T19:18:17.381Z,60.03
2023-02-11T19:20:45.932Z,48.37
2023-02-11T19:23:14.094Z,50.23
2023-02-11T19:25:46.841Z,46.80
2023-02-11T19:28:15.492Z,54.40
2023-02-11T19:30:43.872Z,54.87
2023-02-11T19:33:13.452Z,53.30
2023-02-11T19:35:41.874Z,45.80
2023-02-11T19:38:10.081Z,48.20
2023-02-11T19:40:38.262Z,50.77
2023-02-11T19:43:06.540Z,53.87
2023-02-11T19:45:37.809Z,57.50
2023-02-11T19:48:06.209Z,50.93
2023-02-11T19:50:35.792Z,50.37
2023-02-11T19:53:03.996Z,49.50
2023-02-11T19:55:35.075Z,49.60
2023-02-11T19:58:03.255Z,48.17
2023-02-11T20:00:31.453Z,42.80
2023-02-11T20:02:59.788Z,53.07
2023-02-11T20:05:28.161Z,48.50
2023-02-11T20:07:57.750Z,50.50
2023-02-11T20:10:26.143Z,56.83
2023-02-11T20:12:54.340Z,46.33
2023-02-11T20:15:22.537Z,50.83
2023-02-11T20:17:50.783Z,45.90
2023-02-11T20:20:19.106Z,52.33
2023-02-11T20:22:47.306Z,51.07
2023-02-11T20:25:16.952Z,51.60
2023-02-11T20:27:45.131Z,49.53
2023-02-11T20:30:14.369Z,50.00
2023-02-11T20:32:42.614Z,55.23
2023-02-11T20:35:11.224Z,51.13
2023-02-11T20:37:41.668Z,49.40
2023-02-11T20:40:11.948Z,52.60
2023-02-11T20:42:41.453Z,54.33
2023-02-11T20:45:10.270Z,49.17
2023-02-11T20:47:38.985Z,53.33
2023-02-11T20:50:08.362Z,54.07
2023-02-11T20:52:36.924Z,57.33
2023-02-11T20:55:05.451Z,53.80
2023-02-11T20:57:35.022Z,55.80
2023-02-11T21:00:05.470Z,63.03
2023-02-11T21:02:33.601Z,57.53
2023-02-11T21:05:01.737Z,54.83
2023-02-11T21:07:30.063Z,55.87
2023-02-11T21:09:58.357Z,52.80
2023-02-11T21:12:26.506Z,52.50
2023-02-11T21:14:55.008Z,58.83
2023-02-11T21:17:26.270Z,55.93
2023-02-11T21:19:54.437Z,52.03
2023-02-11T21:22:22.632Z,56.40
2023-02-11T21:24:50.990Z,56.23
2023-02-11T21:27:19.164Z,55.93
2023-02-11T21:29:54.120Z,64.67
2023-02-11T21:32:24.396Z,63.63
2023-02-11T21:34:53.867Z,50.93
2023-02-11T21:37:23.133Z,61.70
2023-02-11T21:39:51.309Z,56.23
2023-02-11T21:42:19.531Z,54.97
2023-02-11T21:44:47.674Z,51.27
2023-02-11T21:47:15.941Z,54.90
2023-02-11T21:49:45.445Z,52.70
2023-02-11T21:52:13.681Z,57.70
2023-02-11T21:54:41.874Z,62.97
2023-02-11T21:57:10.089Z,54.13
2023-02-11T21:59:38.411Z,58.17
2023-02-11T22:02:06.868Z,56.63
2023-02-11T22:04:35.039Z,53.17
2023-02-11T22:07:04.711Z,59.70
2023-02-11T22:09:33.133Z,56.80
2023-02-11T22:12:01.348Z,56.93
2023-02-11T22:14:32.184Z,50.87
2023-02-11T22:17:00.567Z,54.47
2023-02-11T22:19:28.939Z,58.23
2023-02-11T22:21:57.116Z,51.87
2023-02-11T22:24:26.709Z,56.23
2023-02-11T22:26:54.943Z,60.20
2023-02-11T22:29:23.284Z,57.53
2023-02-11T22:31:51.467Z,55.80
2023-02-11T22:34:19.701Z,53.40
2023-02-11T22:36:47.928Z,52.47
2023-02-11T22:39:17.538Z,53.40
2023-02-11T22:41:48.421Z,58.40
2023-02-11T22:44:17.768Z,48.87
2023-02-11T22:46:45.988Z,52.53
2023-02-11T22:49:16.920Z,56.83
2023-02-11T22:51:45.836Z,56.57
2023-02-11T22:54:16.473Z,56.17
2023-02-11T22:56:46.858Z,58.60
2023-02-11T22:59:43.421Z,58.00
2023-02-11T23:02:11.737Z,53.70
2023-02-11T23:04:40.013Z,51.47
2023-02-11T23:07:08.173Z,47.10
2023-02-11T23:09:36.331Z,53.20
2023-02-11T23:12:06.335Z,57.83
2023-02-11T23:14:34.539Z,62.97
2023-02-11T23:17:03.055Z,53.87
2023-02-11T23:19:31.200Z,52.10
2023-02-11T23:21:59.420Z,54.47
2023-02-11T23:24:27.673Z,52.90
2023-02-11T23:26:55.999Z,56.77
2023-02-11T23:29:25.566Z,55.73
2023-02-11T23:31:55.290Z,63.10
2023-02-11T23:34:25.365Z,49.57
2023-02-11T23:36:53.717Z,52.13
2023-02-11T23:39:21.931Z,53.70
2023-02-11T23:41:52.268Z,62.83
2023-02-11T23:44:20.441Z,56.07
2023-02-11T23:46:49.951Z,54.27
2023-02-11T23:49:18.136Z,54.73
2023-02-11T23:51:46.500Z,55.70
2023-02-11T23:54:15.574Z,56.37
2023-02-11T23:56:43.888Z,55.97
2023-02-11T23:59:12.578Z,53.27
